Time;durP1;ratioP1;P1;durP2;ratioP2;P2;SDS_P1;SDS_P2;PMS_P1;PMS_P2;Temp;Humidity;BMP_temperature;BMP_pressure;BME280_temperature;BME280_humidity;BME280_pressure;Samples;Min_cycle;Max_cycle;Signal;HPM_P1;HPM_P2
2022/08/03 00:00:06;;;;;;;2.13;1.92;;;21.20;75.60;;;;;;5052898;28;20237;-66
2022/08/03 00:02:32;;;;;;;2.92;2.13;;;21.10;76.10;;;;;;5052560;28;20178;-65
2022/08/03 00:04:58;;;;;;;4.05;2.20;;;21.10;76.40;;;;;;5053011;28;20697;-65
2022/08/03 00:07:23;;;;;;;2.60;1.73;;;21.00;76.40;;;;;;5053315;28;20177;-65
2022/08/03 00:09:49;;;;;;;2.05;1.88;;;21.00;76.70;;;;;;5052740;28;20181;-65
2022/08/03 00:12:14;;;;;;;1.90;1.75;;;21.00;76.90;;;;;;5052830;28;20673;-65
2022/08/03 00:14:40;;;;;;;2.38;1.83;;;21.00;77.20;;;;;;5053075;28;20189;-65
2022/08/03 00:17:06;;;;;;;1.75;1.65;;;21.00;77.50;;;;;;5048687;28;20193;-65
2022/08/03 00:19:31;;;;;;;1.88;1.77;;;21.00;77.60;;;;;;5037905;28;20181;-65
2022/08/03 00:21:57;;;;;;;3.72;1.90;;;20.90;77.70;;;;;;5052946;28;20184;-65
2022/08/03 00:24:22;;;;;;;9.20;2.00;;;20.90;78.20;;;;;;5052809;28;20226;-65
2022/08/03 00:26:48;;;;;;;3.58;1.90;;;20.80;78.50;;;;;;5052622;28;20173;-65
2022/08/03 00:29:13;;;;;;;2.70;2.20;;;20.80;78.50;;;;;;5052399;28;20170;-65
2022/08/03 00:31:39;;;;;;;2.95;1.90;;;20.80;79.00;;;;;;5051146;28;20186;-65
2022/08/03 00:34:05;;;;;;;1.83;1.70;;;20.70;79.20;;;;;;5051413;28;20261;-65
2022/08/03 00:36:31;;;;;;;3.78;1.90;;;20.70;79.30;;;;;;5050736;28;20178;-64
2022/08/03 00:38:56;;;;;;;2.15;1.95;;;20.70;80.10;;;;;;5052098;28;20652;-65
2022/08/03 00:41:22;;;;;;;2.63;1.65;;;20.60;80.50;;;;;;5051894;28;20213;-65
2022/08/03 00:43:47;;;;;;;2.13;1.90;;;20.60;81.00;;;;;;5052090;28;20185;-65
2022/08/03 00:46:13;;;;;;;2.38;1.80;;;20.50;81.60;;;;;;5052019;28;20194;-65
2022/08/03 00:48:39;;;;;;;4.20;3.08;;;20.50;82.20;;;;;;5052008;28;20532;-65
2022/08/03 00:51:05;;;;;;;3.28;2.65;;;20.40;82.80;;;;;;5052102;28;20188;-65
2022/08/03 00:53:31;;;;;;;3.15;2.10;;;20.40;83.30;;;;;;5051509;28;20181;-65
2022/08/03 00:55:57;;;;;;;2.53;2.20;;;20.30;83.40;;;;;;5051753;28;20197;-65
2022/08/03 00:58:23;;;;;;;2.63;2.00;;;20.30;83.80;;;;;;5051474;28;20186;-65
2022/08/03 01:00:49;;;;;;;2.45;2.10;;;20.30;84.20;;;;;;5051614;28;20215;-65
2022/08/03 01:03:15;;;;;;;2.22;2.00;;;20.20;84.90;;;;;;5051557;28;20643;-65
2022/08/03 01:06:23;;;;;;;3.03;2.50;;;20.10;85.70;;;;;;5050765;28;20575;-65
2022/08/03 01:08:56;;;;;;;2.38;2.03;;;20.10;87.20;;;;;;5030779;28;20185;-65
2022/08/03 01:11:22;;;;;;;2.08;1.80;;;20.10;88.10;;;;;;5043069;28;20174;-65
2022/08/03 01:14:16;;;;;;;2.03;1.90;;;20.10;88.40;;;;;;5050577;28;20196;-65
2022/08/03 01:16:53;;;;;;;5.43;2.25;;;20.00;88.90;;;;;;5050681;28;20200;-65
2022/08/03 01:19:51;;;;;;;2.33;2.13;;;20.00;89.10;;;;;;5051394;28;20613;-65
2022/08/03 01:22:44;;;;;;;3.42;2.13;;;20.00;90.00;;;;;;5050596;28;20196;-65
2022/08/03 01:25:32;;;;;;;3.95;2.15;;;19.90;90.30;;;;;;5051185;28;20691;-65
2022/08/03 01:28:34;;;;;;;2.10;1.88;;;19.80;90.70;;;;;;5051051;28;20628;-65
2022/08/03 01:31:05;;;;;;;2.47;2.25;;;19.80;91.00;;;;;;5051183;28;20707;-65
2022/08/03 01:33:35;;;;;;;3.15;1.95;;;19.80;91.40;;;;;;5050261;28;20287;-65
2022/08/03 01:36:13;;;;;;;2.28;1.90;;;19.80;91.70;;;;;;5050151;28;20184;-65
2022/08/03 01:38:46;;;;;;;3.25;2.00;;;19.80;92.00;;;;;;5050932;28;20216;-65
2022/08/03 01:41:16;;;;;;;2.45;1.90;;;19.80;92.30;;;;;;5050476;28;20217;-65
2022/08/03 01:43:44;;;;;;;4.22;1.90;;;19.80;92.40;;;;;;5045669;28;20197;-65
2022/08/03 01:46:11;;;;;;;2.40;2.20;;;19.70;92.50;;;;;;5050979;28;20362;-65
2022/08/03 01:48:38;;;;;;;3.72;2.22;;;19.70;92.70;;;;;;5051234;28;20626;-65
2022/08/03 01:51:07;;;;;;;3.42;2.03;;;19.70;92.70;;;;;;5050854;28;20188;-65
2022/08/03 01:53:34;;;;;;;2.22;2.03;;;19.60;92.70;;;;;;5049951;28;20185;-65
2022/08/03 01:56:02;;;;;;;2.35;2.15;;;19.60;92.80;;;;;;5050942;28;20219;-65
2022/08/03 01:58:29;;;;;;;3.50;2.20;;;19.50;92.90;;;;;;5050553;28;20196;-65
2022/08/03 02:00:59;;;;;;;2.47;2.28;;;19.40;93.10;;;;;;5050754;28;20267;-65
2022/08/03 02:03:27;;;;;;;2.05;1.95;;;19.40;93.30;;;;;;5050961;28;20177;-65
2022/08/03 02:05:55;;;;;;;4.10;2.17;;;19.30;93.60;;;;;;5050739;28;20632;-65
2022/08/03 02:08:24;;;;;;;2.35;2.13;;;19.30;93.80;;;;;;5050550;28;20183;-65
2022/08/03 02:10:51;;;;;;;2.65;1.88;;;19.20;93.90;;;;;;5051316;28;20173;-65
2022/08/03 02:13:19;;;;;;;2.08;1.73;;;19.20;94.20;;;;;;5050650;28;20648;-65
2022/08/03 02:15:45;;;;;;;2.40;2.10;;;19.20;94.40;;;;;;5050572;28;20188;-65
2022/08/03 02:18:12;;;;;;;2.53;2.10;;;19.10;94.50;;;;;;5050910;28;20174;-65
2022/08/03 02:20:41;;;;;;;2.00;1.90;;;19.20;94.70;;;;;;5054951;28;20680;-65
2022/08/03 02:23:07;;;;;;;2.78;1.92;;;19.10;94.70;;;;;;5054080;28;20221;-65
2022/08/03 02:25:40;;;;;;;4.18;2.13;;;19.20;94.90;;;;;;5054798;28;20184;-65
2022/08/03 02:28:19;;;;;;;2.63;1.98;;;19.20;95.10;;;;;;5054667;28;20181;-65
2022/08/03 02:30:52;;;;;;;2.30;1.90;;;19.10;95.10;;;;;;5055126;28;20185;-64
2022/08/03 02:33:25;;;;;;;2.67;1.95;;;19.10;95.20;;;;;;5054765;28;20177;-65
2022/08/03 02:35:52;;;;;;;4.47;1.98;;;19.10;95.60;;;;;;5054534;28;20181;-64
2022/08/03 02:38:22;;;;;;;2.42;2.10;;;19.10;95.80;;;;;;5054451;28;20177;-64
2022/08/03 02:40:49;;;;;;;3.25;2.20;;;19.10;96.10;;;;;;5054886;28;20240;-64
2022/08/03 02:43:18;;;;;;;5.55;2.33;;;19.10;96.10;;;;;;5051739;28;20259;-64
2022/08/03 02:45:46;;;;;;;2.67;2.15;;;19.00;96.00;;;;;;5047826;28;20663;-64
2022/08/03 02:48:16;;;;;;;2.20;2.00;;;19.00;96.00;;;;;;5054533;28;20179;-66
2022/08/03 02:50:44;;;;;;;2.63;2.28;;;18.90;96.10;;;;;;5054170;28;20529;-65
2022/08/03 02:53:11;;;;;;;2.30;2.10;;;18.90;96.30;;;;;;5054132;28;20178;-65
2022/08/03 02:55:38;;;;;;;4.40;2.30;;;18.90;96.30;;;;;;5054120;28;20663;-65
2022/08/03 02:58:05;;;;;;;7.28;2.13;;;18.90;96.50;;;;;;5054444;28;20209;-65
2022/08/03 03:00:33;;;;;;;3.40;2.50;;;18.90;96.50;;;;;;5054013;28;20239;-65
2022/08/03 03:03:01;;;;;;;2.17;1.98;;;18.90;96.60;;;;;;5054097;28;20173;-64
2022/08/03 03:05:28;;;;;;;2.85;2.20;;;18.90;96.70;;;;;;5054090;28;20186;-65
2022/08/03 03:07:54;;;;;;;2.45;2.25;;;18.90;97.00;;;;;;5054229;28;20205;-65
2022/08/03 03:10:21;;;;;;;2.30;2.10;;;18.80;97.40;;;;;;5053610;28;20395;-65
2022/08/03 03:12:51;;;;;;;4.35;2.30;;;18.80;97.80;;;;;;5053883;28;20201;-65
2022/08/03 03:15:16;;;;;;;3.83;2.35;;;18.80;97.90;;;;;;5053452;28;20178;-65
2022/08/03 03:17:43;;;;;;;3.22;1.77;;;18.80;98.10;;;;;;5053755;28;20184;-65
2022/08/03 03:20:09;;;;;;;2.25;2.05;;;18.80;98.10;;;;;;5053708;28;20201;-65
2022/08/03 03:22:35;;;;;;;3.13;2.72;;;18.70;98.10;;;;;;5053390;28;20181;-64
2022/08/03 03:25:02;;;;;;;2.40;2.20;;;18.70;98.30;;;;;;5052398;28;20177;-65
2022/08/03 03:27:28;;;;;;;2.42;2.08;;;18.70;98.40;;;;;;5052379;28;20652;-65
2022/08/03 03:29:53;;;;;;;3.05;2.30;;;18.70;98.60;;;;;;5053392;28;20180;-65
2022/08/03 03:32:19;;;;;;;2.30;2.10;;;18.60;98.70;;;;;;5053593;28;20660;-64
2022/08/03 03:34:45;;;;;;;2.40;2.20;;;18.70;98.80;;;;;;5053608;28;20251;-65
2022/08/03 03:37:10;;;;;;;2.67;2.20;;;18.70;98.90;;;;;;5053023;28;20189;-65
2022/08/03 03:39:36;;;;;;;2.40;2.20;;;18.70;98.90;;;;;;5053267;28;20257;-65
2022/08/03 03:42:02;;;;;;;4.93;2.20;;;18.60;99.10;;;;;;5053602;28;20189;-65
2022/08/03 03:44:28;;;;;;;2.67;2.45;;;18.60;99.10;;;;;;5053274;28;20565;-64
2022/08/03 03:46:56;;;;;;;3.97;2.38;;;18.60;99.20;;;;;;5052879;28;20545;-65
2022/08/03 03:49:22;;;;;;;2.50;2.30;;;18.50;99.30;;;;;;5053068;28;20181;-65
2022/08/03 03:51:50;;;;;;;3.55;2.45;;;18.60;99.50;;;;;;5052673;28;20180;-65
2022/08/03 03:54:16;;;;;;;3.00;2.28;;;18.50;99.30;;;;;;5053200;28;20181;-65
2022/08/03 03:56:41;;;;;;;2.72;2.50;;;18.50;99.40;;;;;;5051859;28;20533;-65
2022/08/03 03:59:07;;;;;;;6.13;2.60;;;18.50;99.40;;;;;;5053029;28;20227;-64
2022/08/03 04:01:33;;;;;;;3.42;2.15;;;18.40;99.20;;;;;;5052223;28;20289;-64
2022/08/03 04:10:57;;;;;;;3.35;2.38;;;18.40;99.30;;;;;;5053004;28;20215;-64
2022/08/03 04:12:15;;;;;;;3.47;2.40;;;18.40;99.70;;;;;;5052944;28;20567;-64
2022/08/03 04:14:41;;;;;;;3.08;2.28;;;18.40;99.80;;;;;;5054473;28;20236;-63
2022/08/03 04:17:10;;;;;;;4.38;2.40;;;18.50;99.80;;;;;;5061091;28;20680;-65
2022/08/03 04:19:41;;;;;;;4.63;2.10;;;18.40;99.90;;;;;;5053081;28;20185;-64
2022/08/03 04:22:09;;;;;;;3.53;2.40;;;18.40;99.90;;;;;;5054324;28;20215;-65
2022/08/03 04:25:00;;;;;;;3.97;2.60;;;18.50;99.90;;;;;;5053071;28;20232;-68
2022/08/03 04:27:31;;;;;;;2.88;2.53;;;18.40;99.80;;;;;;5051868;28;20189;-66
2022/08/03 04:30:01;;;;;;;2.60;2.03;;;18.40;99.90;;;;;;5052651;28;20220;-66
2022/08/03 04:32:27;;;;;;;3.00;2.60;;;18.40;99.90;;;;;;5052776;28;20181;-63
2022/08/03 04:34:53;;;;;;;2.83;2.50;;;18.50;99.90;;;;;;5052394;28;20185;-64
2022/08/03 04:37:26;;;;;;;2.53;2.30;;;18.50;99.90;;;;;;5052729;28;20177;-65
2022/08/03 04:39:55;;;;;;;2.47;2.05;;;18.50;99.90;;;;;;5052836;28;20293;-66
2022/08/03 04:42:21;;;;;;;4.88;3.28;;;18.50;99.90;;;;;;5052163;28;20185;-66
2022/08/03 04:44:49;;;;;;;5.38;3.03;;;18.60;99.90;;;;;;5049665;28;20663;-67
2022/08/03 04:47:15;;;;;;;3.17;2.33;;;18.60;99.70;;;;;;5051795;28;20235;-65
2022/08/03 04:49:41;;;;;;;3.22;2.50;;;18.60;99.70;;;;;;5052442;28;20203;-64
2022/08/03 04:52:08;;;;;;;3.10;2.67;;;18.60;99.90;;;;;;5050847;28;20316;-65
2022/08/03 04:54:44;;;;;;;5.50;3.22;;;18.70;99.90;;;;;;5052479;28;20224;-65
2022/08/03 04:57:10;;;;;;;4.68;2.40;;;18.80;99.80;;;;;;5037135;28;20188;-65
2022/08/03 04:59:36;;;;;;;2.53;2.33;;;19.10;99.40;;;;;;5052432;28;20268;-65
2022/08/03 05:02:02;;;;;;;2.53;2.30;;;19.30;99.10;;;;;;5051901;28;20260;-65
2022/08/03 05:04:27;;;;;;;2.42;2.22;;;19.60;98.70;;;;;;5052063;28;20186;-65
2022/08/03 05:06:53;;;;;;;2.47;2.28;;;20.00;98.00;;;;;;5052324;28;20181;-65
2022/08/03 05:09:19;;;;;;;2.60;2.40;;;20.40;97.40;;;;;;5051097;28;20182;-65
2022/08/03 05:11:44;;;;;;;2.58;2.33;;;20.80;96.60;;;;;;5052162;28;20534;-65
2022/08/03 05:14:10;;;;;;;3.33;2.22;;;21.30;96.00;;;;;;5052091;28;20276;-66
2022/08/03 05:16:35;;;;;;;2.30;2.10;;;21.60;95.50;;;;;;5051599;28;20178;-66
2022/08/03 05:19:01;;;;;;;2.45;2.15;;;22.10;94.60;;;;;;5051008;28;20537;-65
2022/08/03 05:21:27;;;;;;;3.65;2.10;;;22.40;93.80;;;;;;5051438;28;20217;-66
2022/08/03 05:23:52;;;;;;;4.78;2.47;;;22.80;92.90;;;;;;5051672;28;20221;-66
2022/08/03 05:26:18;;;;;;;7.97;4.20;;;23.20;92.20;;;;;;5051917;28;20205;-66
2022/08/03 05:28:43;;;;;;;12.00;4.63;;;23.50;91.50;;;;;;5052054;28;20173;-66
2022/08/03 05:31:09;;;;;;;8.25;3.50;;;23.90;90.80;;;;;;5051919;28;20196;-65
2022/08/03 05:33:35;;;;;;;9.32;3.80;;;24.40;90.20;;;;;;5052105;28;20174;-65
2022/08/03 05:36:00;;;;;;;25.83;11.10;;;24.80;88.30;;;;;;5052097;28;20263;-65
2022/08/03 05:38:26;;;;;;;28.08;10.35;;;25.20;86.50;;;;;;5051951;28;20177;-65
2022/08/03 05:40:52;;;;;;;7.63;4.47;;;25.60;84.50;;;;;;5051405;28;20213;-65
2022/08/03 05:43:17;;;;;;;4.82;2.83;;;26.00;82.90;;;;;;5049074;28;20177;-65
2022/08/03 05:45:43;;;;;;;4.22;3.40;;;26.40;80.90;;;;;;5047195;28;20181;-65
2022/08/03 05:48:08;;;;;;;4.90;3.00;;;26.80;79.00;;;;;;5051399;28;20217;-65
2022/08/03 05:50:35;;;;;;;41.72;19.90;;;27.20;77.20;;;;;;5051786;28;20177;-65
2022/08/03 05:53:00;;;;;;;35.03;17.27;;;27.60;75.50;;;;;;5050949;28;20644;-65
2022/08/03 05:55:26;;;;;;;19.02;9.70;;;27.90;74.20;;;;;;5051271;28;20184;-65
2022/08/03 05:57:52;;;;;;;30.25;13.73;;;28.10;73.00;;;;;;5051353;28;20224;-66
2022/08/03 06:00:17;;;;;;;10.32;5.90;;;28.50;71.60;;;;;;5051370;28;20672;-65
2022/08/03 06:02:43;;;;;;;6.05;2.97;;;28.90;70.00;;;;;;5051348;28;20177;-66
2022/08/03 06:05:09;;;;;;;3.42;2.08;;;29.50;68.00;;;;;;5051639;28;20181;-66
2022/08/03 06:07:35;;;;;;;2.33;2.05;;;30.00;66.10;;;;;;5051355;28;20180;-66
2022/08/03 06:10:02;;;;;;;3.05;2.00;;;30.40;64.10;;;;;;5051266;28;20181;-66
2022/08/03 06:12:28;;;;;;;2.30;1.98;;;30.70;63.20;;;;;;5050950;28;20526;-66
2022/08/03 06:14:54;;;;;;;3.20;2.40;;;31.20;61.90;;;;;;5051212;28;20181;-65
2022/08/03 06:17:19;;;;;;;3.85;2.25;;;31.60;60.00;;;;;;5051294;28;20172;-63
2022/08/03 06:19:45;;;;;;;4.32;2.40;;;32.10;58.90;;;;;;5051040;28;20187;-63
2022/08/03 06:22:11;;;;;;;2.22;2.03;;;32.40;57.80;;;;;;5050460;28;20705;-64
2022/08/03 06:24:36;;;;;;;4.55;2.05;;;32.70;56.80;;;;;;5051148;28;20217;-64
2022/08/03 06:27:02;;;;;;;2.90;2.42;;;33.00;56.00;;;;;;5051385;28;20640;-64
2022/08/03 06:29:27;;;;;;;3.65;2.50;;;33.40;55.20;;;;;;5051618;28;20179;-64
2022/08/03 06:31:53;;;;;;;2.70;2.40;;;33.80;53.80;;;;;;5051197;28;20177;-65
2022/08/03 06:34:18;;;;;;;3.67;2.10;;;34.10;53.50;;;;;;5051143;28;20530;-64
2022/08/03 06:36:44;;;;;;;3.40;2.20;;;34.40;52.60;;;;;;5051453;28;20169;-64
2022/08/03 06:39:09;;;;;;;4.75;2.17;;;34.90;51.80;;;;;;5051275;28;20586;-64
2022/08/03 06:41:35;;;;;;;5.50;2.47;;;35.40;51.20;;;;;;5051185;28;20348;-65
2022/08/03 06:44:00;;;;;;;2.50;2.08;;;35.80;50.20;;;;;;5051071;28;20226;-64
2022/08/03 06:46:26;;;;;;;4.28;2.78;;;36.00;49.40;;;;;;5051283;28;20177;-65
2022/08/03 06:48:51;;;;;;;4.00;2.65;;;36.30;48.40;;;;;;5051248;28;20530;-64
2022/08/03 06:51:17;;;;;;;4.05;1.95;;;36.60;47.50;;;;;;5050983;28;20254;-65
2022/08/03 06:53:42;;;;;;;4.97;3.00;;;36.80;47.30;;;;;;5051233;28;20199;-65
2022/08/03 06:56:08;;;;;;;34.95;13.63;;;37.00;46.50;;;;;;5051040;28;20200;-65
2022/08/03 06:58:34;;;;;;;9.25;4.95;;;37.20;46.60;;;;;;5051171;28;20179;-64
2022/08/03 07:00:59;;;;;;;4.82;2.75;;;37.30;45.90;;;;;;5050838;28;20212;-65
2022/08/03 07:03:25;;;;;;;9.60;3.78;;;37.20;45.90;;;;;;5050985;28;20581;-65
2022/08/03 07:05:51;;;;;;;7.32;4.18;;;37.40;45.90;;;;;;5053851;28;20179;-65
2022/08/03 07:08:17;;;;;;;5.18;3.63;;;37.60;45.40;;;;;;5054467;28;20185;-65
2022/08/03 07:10:43;;;;;;;5.55;3.10;;;37.90;45.00;;;;;;5054710;28;20255;-65
2022/08/03 07:13:09;;;;;;;3.65;2.35;;;38.30;44.80;;;;;;5054615;28;20188;-65
2022/08/03 07:15:35;;;;;;;3.47;2.50;;;38.60;44.10;;;;;;5053327;28;20173;-65
2022/08/03 07:18:01;;;;;;;7.97;2.38;;;39.00;43.90;;;;;;5054370;28;20203;-65
2022/08/03 07:20:26;;;;;;;3.00;2.20;;;39.20;43.20;;;;;;5054370;28;20231;-65
2022/08/03 07:22:52;;;;;;;2.67;2.10;;;39.50;43.00;;;;;;5054246;28;20668;-65
2022/08/03 07:25:18;;;;;;;2.42;2.20;;;39.90;42.40;;;;;;5054254;28;20526;-65
2022/08/03 07:27:45;;;;;;;3.08;2.22;;;40.10;41.80;;;;;;5054266;28;20181;-65
2022/08/03 07:30:13;;;;;;;3.38;2.17;;;40.30;41.30;;;;;;5054262;28;20215;-65
2022/08/03 07:32:38;;;;;;;3.58;2.20;;;40.60;41.40;;;;;;5054191;28;20177;-65
2022/08/03 07:35:05;;;;;;;3.83;2.10;;;40.60;40.80;;;;;;5054259;28;20176;-65
2022/08/03 07:37:31;;;;;;;1.90;1.80;;;40.70;40.40;;;;;;5054188;28;20256;-65
2022/08/03 07:39:58;;;;;;;2.92;1.83;;;40.90;40.70;;;;;;5053834;28;20701;-65
2022/08/03 07:42:24;;;;;;;4.43;2.40;;;40.90;40.00;;;;;;5054066;28;20659;-65
2022/08/03 07:44:49;;;;;;;2.10;1.95;;;40.90;39.90;;;;;;5039119;28;20208;-65
2022/08/03 07:47:24;;;;;;;2.03;1.90;;;40.80;40.70;;;;;;5034074;28;20190;-65
2022/08/03 07:49:50;;;;;;;2.25;1.73;;;40.80;40.30;;;;;;5034150;28;20179;-65
2022/08/03 07:54:59;;;;;;;2.58;1.90;;;41.00;40.20;;;;;;5053658;28;20681;-66
2022/08/03 07:57:25;;;;;;;4.25;2.10;;;40.90;39.80;;;;;;5053948;28;20177;-66
2022/08/03 07:59:50;;;;;;;3.10;2.10;;;40.90;40.10;;;;;;5053852;28;20173;-66
2022/08/03 08:02:16;;;;;;;2.72;1.80;;;40.90;39.80;;;;;;5053744;28;20191;-65
2022/08/03 08:04:42;;;;;;;2.35;2.00;;;40.90;39.80;;;;;;5053819;28;20242;-66
2022/08/03 08:07:07;;;;;;;2.20;2.00;;;40.80;40.60;;;;;;5053648;28;20241;-66
2022/08/03 08:09:33;;;;;;;4.13;2.15;;;40.90;40.30;;;;;;5053677;28;20185;-66
2022/08/03 08:11:59;;;;;;;2.03;1.92;;;41.10;39.90;;;;;;5053355;28;20709;-65
2022/08/03 08:14:25;;;;;;;3.92;2.10;;;41.20;39.80;;;;;;5053484;28;20181;-65
2022/08/03 08:16:50;;;;;;;2.72;1.63;;;41.10;39.80;;;;;;5052499;28;20208;-65
2022/08/03 08:19:16;;;;;;;2.00;1.90;;;41.10;40.70;;;;;;5053317;28;20187;-65
2022/08/03 08:21:45;;;;;;;1.42;1.40;;;41.20;39.50;;;;;;5053321;28;20291;-65
2022/08/03 08:24:10;;;;;;;3.15;1.63;;;41.20;39.60;;;;;;5053103;28;20598;-65
2022/08/03 08:26:36;;;;;;;1.85;1.73;;;41.40;38.50;;;;;;5053448;28;20185;-67
2022/08/03 08:29:03;;;;;;;3.65;1.70;;;41.40;38.10;;;;;;5053137;28;20169;-66
2022/08/03 08:31:28;;;;;;;1.95;1.50;;;41.40;39.60;;;;;;5053144;28;20185;-66
2022/08/03 08:33:54;;;;;;;1.60;1.50;;;41.50;38.70;;;;;;5053141;28;20629;-65
2022/08/03 08:36:19;;;;;;;2.17;1.70;;;41.50;37.50;;;;;;5052769;28;20193;-66
2022/08/03 08:38:45;;;;;;;2.30;1.60;;;41.20;38.20;;;;;;5053149;28;20255;-66
2022/08/03 08:41:12;;;;;;;1.38;1.27;;;40.80;38.80;;;;;;5052806;28;20259;-66
2022/08/03 08:43:38;;;;;;;1.85;1.35;;;40.50;38.50;;;;;;5047636;28;20535;-66
2022/08/03 08:46:06;;;;;;;1.65;1.45;;;40.50;39.60;;;;;;5033009;28;20235;-66
2022/08/03 08:48:34;;;;;;;1.55;1.30;;;40.60;39.60;;;;;;5033020;28;20181;-66
2022/08/03 08:51:00;;;;;;;1.50;1.40;;;40.50;39.60;;;;;;5039092;28;20264;-66
2022/08/03 08:53:27;;;;;;;1.83;1.52;;;40.40;39.40;;;;;;5052831;28;20257;-66
2022/08/03 08:55:57;;;;;;;2.78;1.67;;;40.50;38.80;;;;;;5052798;28;20180;-66
2022/08/03 08:58:25;;;;;;;1.92;1.40;;;40.70;40.00;;;;;;5052749;28;20185;-67
2022/08/03 09:00:50;;;;;;;1.35;1.25;;;40.80;38.60;;;;;;5052559;28;20216;-66
2022/08/03 09:03:16;;;;;;;1.50;1.40;;;40.80;37.90;;;;;;5052566;28;20713;-66
2022/08/03 09:05:43;;;;;;;3.65;1.45;;;40.80;39.70;;;;;;5052577;28;20173;-66
2022/08/03 09:08:08;;;;;;;2.80;1.50;;;40.80;39.30;;;;;;5052441;28;20181;-68
2022/08/03 09:10:34;;;;;;;1.50;1.40;;;40.80;38.10;;;;;;5052471;28;20183;-66
2022/08/03 09:13:00;;;;;;;1.58;1.48;;;40.70;37.90;;;;;;5052343;28;20176;-66
2022/08/03 09:15:26;;;;;;;2.25;1.40;;;40.30;39.40;;;;;;5052355;28;20188;-65
2022/08/03 09:17:55;;;;;;;1.50;1.40;;;40.00;39.90;;;;;;5052358;28;20200;-65
2022/08/03 09:20:22;;;;;;;2.42;1.48;;;39.80;39.60;;;;;;5052108;28;20226;-66
2022/08/03 09:22:55;;;;;;;1.45;1.35;;;39.90;40.40;;;;;;5052109;28;20216;-66
2022/08/03 09:25:31;;;;;;;2.03;1.50;;;39.90;40.40;;;;;;5051999;28;20184;-66
2022/08/03 09:28:10;;;;;;;1.75;1.50;;;40.10;39.80;;;;;;5052188;28;20199;-68
2022/08/03 09:30:38;;;;;;;2.75;1.65;;;40.10;39.50;;;;;;5052245;28;20191;-67
2022/08/03 09:33:09;;;;;;;1.92;1.42;;;40.30;39.70;;;;;;5052109;28;20708;-66
2022/08/03 09:35:46;;;;;;;1.58;1.48;;;40.20;38.80;;;;;;5052175;28;20199;-65
2022/08/03 09:38:18;;;;;;;3.83;1.15;;;40.30;39.60;;;;;;5052005;28;20173;-67
2022/08/03 09:40:45;;;;;;;1.83;1.63;;;40.50;39.60;;;;;;5051854;28;20710;-66
2022/08/03 09:43:11;;;;;;;1.50;1.10;;;40.70;39.70;;;;;;5050636;28;20203;-66
2022/08/03 09:45:38;;;;;;;2.25;1.33;;;40.70;39.00;;;;;;5031937;28;20649;-66
2022/08/03 09:48:28;;;;;;;2.42;1.33;;;40.80;38.00;;;;;;5032001;28;20201;-66
2022/08/03 09:50:59;;;;;;;1.67;1.45;;;40.90;38.00;;;;;;5037595;28;20197;-68
2022/08/03 09:53:25;;;;;;;1.60;1.05;;;41.10;36.90;;;;;;5051776;28;20507;-66
2022/08/03 09:55:54;;;;;;;1.55;1.45;;;40.80;37.00;;;;;;5051867;28;20177;-66
2022/08/03 09:58:20;;;;;;;2.55;1.45;;;40.50;37.00;;;;;;5051546;28;20176;-68
2022/08/03 10:00:56;;;;;;;1.40;1.30;;;40.50;37.60;;;;;;5051641;28;20771;-66
2022/08/03 10:03:22;;;;;;;1.40;1.30;;;40.30;36.70;;;;;;5051658;28;20632;-67
2022/08/03 10:05:48;;;;;;;2.85;1.27;;;40.10;37.20;;;;;;5051682;28;20177;-67
2022/08/03 10:08:15;;;;;;;1.52;1.42;;;39.90;36.60;;;;;;5050459;28;20184;-66
2022/08/03 10:10:43;;;;;;;1.70;1.50;;;39.80;38.60;;;;;;5051606;28;20271;-67
2022/08/03 10:13:13;;;;;;;1.50;1.40;;;39.50;37.80;;;;;;5051557;28;20263;-66
2022/08/03 10:15:40;;;;;;;1.45;1.35;;;39.20;38.00;;;;;;5051470;28;20177;-66
2022/08/03 10:18:06;;;;;;;2.00;1.48;;;39.00;38.50;;;;;;5050136;28;20180;-66
2022/08/03 10:20:37;;;;;;;1.40;1.30;;;39.10;38.70;;;;;;5050195;28;20746;-67
2022/08/03 10:23:03;;;;;;;1.67;1.25;;;39.30;38.80;;;;;;5051318;28;20270;-67
2022/08/03 10:25:30;;;;;;;2.70;1.40;;;39.70;37.70;;;;;;5051424;28;20589;-67
2022/08/03 10:27:57;;;;;;;1.38;1.30;;;40.00;38.00;;;;;;5051397;28;20659;-69
2022/08/03 10:30:26;;;;;;;1.50;1.40;;;40.30;37.60;;;;;;5051444;28;20208;-67
2022/08/03 10:32:57;;;;;;;1.42;1.33;;;40.50;36.60;;;;;;5050198;28;20168;-67
2022/08/03 10:35:24;;;;;;;4.32;1.60;;;40.30;36.70;;;;;;5051514;28;20212;-67
2022/08/03 10:38:05;;;;;;;1.77;1.67;;;40.30;37.80;;;;;;5051533;28;20191;-67
2022/08/03 10:40:32;;;;;;;1.40;1.30;;;40.30;37.60;;;;;;5053599;28;20223;-67
2022/08/03 10:43:04;;;;;;;2.80;1.20;;;40.50;37.40;;;;;;5055025;28;20527;-67
2022/08/03 10:45:34;;;;;;;1.33;1.20;;;40.70;37.20;;;;;;5035219;28;20174;-67
2022/08/03 10:48:00;;;;;;;1.38;1.30;;;40.90;36.40;;;;;;5035060;28;20192;-67
2022/08/03 10:50:27;;;;;;;2.42;1.63;;;41.00;36.00;;;;;;5036745;28;20633;-67
2022/08/03 10:53:04;;;;;;;1.60;1.50;;;40.90;36.20;;;;;;5053713;28;20542;-67
2022/08/03 10:58:15;;;;;;;1.10;1.10;;;40.80;36.60;;;;;;5055187;28;20464;-67
2022/08/03 11:00:49;;;;;;;3.05;1.40;;;40.70;36.90;;;;;;5054606;28;20204;-67
2022/08/03 11:03:15;;;;;;;2.70;1.60;;;40.60;36.00;;;;;;5054817;28;20199;-67
2022/08/03 11:05:47;;;;;;;1.52;1.40;;;40.20;36.20;;;;;;5053484;28;20532;-66
2022/08/03 11:08:29;;;;;;;1.52;1.40;;;39.90;36.50;;;;;;5054664;28;20165;-67
2022/08/03 11:10:58;;;;;;;1.30;1.27;;;39.90;37.20;;;;;;5054614;28;20648;-67
2022/08/03 11:13:24;;;;;;;1.60;1.50;;;40.00;37.10;;;;;;5054713;28;20200;-67
2022/08/03 11:15:53;;;;;;;1.85;1.60;;;39.90;37.00;;;;;;5054695;28;20173;-67
2022/08/03 11:18:19;;;;;;;1.45;1.30;;;39.90;37.30;;;;;;5054331;28;20177;-67
2022/08/03 11:20:50;;;;;;;1.50;1.40;;;40.00;37.00;;;;;;5054515;28;20627;-67
2022/08/03 11:23:18;;;;;;;1.30;1.30;;;40.10;37.30;;;;;;5054319;28;20307;-67
2022/08/03 11:26:29;;;;;;;1.85;1.55;;;40.00;36.80;;;;;;5054621;28;20183;-69
2022/08/03 11:29:27;;;;;;;2.58;1.48;;;39.70;37.00;;;;;;5053050;28;20528;-67
2022/08/03 11:31:53;;;;;;;3.35;1.30;;;39.60;36.90;;;;;;5054369;28;20582;-67
2022/08/03 11:34:18;;;;;;;1.40;1.30;;;39.30;37.70;;;;;;5054176;28;20180;-67
2022/08/03 11:37:20;;;;;;;1.65;1.55;;;39.40;38.60;;;;;;5054345;28;20189;-67
2022/08/03 11:39:47;;;;;;;2.88;1.42;;;39.70;38.10;;;;;;5054077;28;20234;-67
2022/08/03 11:42:22;;;;;;;1.70;1.60;;;40.00;38.00;;;;;;5054049;28;20250;-67
2022/08/03 11:44:49;;;;;;;1.45;1.35;;;40.30;37.10;;;;;;5039518;28;20174;-67
2022/08/03 11:47:16;;;;;;;3.63;1.35;;;40.40;36.80;;;;;;5032709;28;20185;-67
2022/08/03 11:49:46;;;;;;;1.50;1.40;;;40.40;36.60;;;;;;5034145;28;20162;-67
2022/08/03 11:52:12;;;;;;;1.50;1.40;;;40.30;36.60;;;;;;5048893;28;20525;-67
2022/08/03 11:54:39;;;;;;;1.63;1.52;;;40.10;36.80;;;;;;5053907;28;20173;-67
2022/08/03 11:57:05;;;;;;;3.40;1.30;;;39.90;37.30;;;;;;5053905;28;20177;-67
2022/08/03 11:59:32;;;;;;;2.28;1.42;;;39.90;37.40;;;;;;5053876;28;20177;-67
2022/08/03 12:02:13;;;;;;;1.70;1.60;;;39.80;37.40;;;;;;5053690;28;20220;-66
2022/08/03 12:04:52;;;;;;;2.05;1.17;;;39.60;37.70;;;;;;5053687;28;20179;-67
2022/08/03 12:07:17;;;;;;;3.17;1.30;;;39.60;37.90;;;;;;5053538;28;20184;-67
2022/08/03 12:10:03;;;;;;;3.53;1.42;;;39.60;38.80;;;;;;5053699;28;20172;-67
2022/08/03 12:12:29;;;;;;;2.25;1.52;;;39.60;37.60;;;;;;5053584;28;20184;-66
2022/08/03 12:14:55;;;;;;;1.95;1.50;;;39.70;37.70;;;;;;5053493;28;20177;-66
2022/08/03 12:17:20;;;;;;;1.50;1.40;;;39.60;37.30;;;;;;5053282;28;20219;-67
2022/08/03 12:19:46;;;;;;;1.60;1.50;;;39.50;37.50;;;;;;5053556;28;20169;-67
2022/08/03 12:22:12;;;;;;;1.40;1.30;;;39.50;37.80;;;;;;5053489;28;20185;-67
2022/08/03 12:24:44;;;;;;;1.40;1.30;;;39.50;38.00;;;;;;5053101;28;20588;-67
2022/08/03 12:27:09;;;;;;;1.88;1.40;;;39.40;37.90;;;;;;5053386;28;20173;-67
2022/08/03 12:29:35;;;;;;;1.70;1.60;;;39.40;38.00;;;;;;5053302;28;20223;-67
2022/08/03 12:32:01;;;;;;;1.50;1.40;;;39.30;37.90;;;;;;5053151;28;20231;-67
2022/08/03 12:34:48;;;;;;;1.55;1.27;;;39.40;37.40;;;;;;5053335;28;20253;-67
2022/08/03 12:37:19;;;;;;;1.33;1.20;;;39.30;38.10;;;;;;5053081;28;20169;-67
2022/08/03 12:39:52;;;;;;;1.73;1.60;;;39.30;38.20;;;;;;5053283;28;20185;-68
2022/08/03 12:42:18;;;;;;;3.45;1.45;;;39.30;38.10;;;;;;5052821;28;20664;-67
2022/08/03 12:44:49;;;;;;;1.23;1.13;;;39.10;38.70;;;;;;5039014;28;20189;-68
2022/08/03 12:47:15;;;;;;;1.50;1.40;;;39.00;37.40;;;;;;5032988;28;20243;-67
2022/08/03 12:49:45;;;;;;;1.33;1.23;;;39.00;37.60;;;;;;5032902;28;20574;-67
2022/08/03 12:52:10;;;;;;;1.67;1.33;;;38.90;38.60;;;;;;5048977;28;20176;-68
2022/08/03 12:54:36;;;;;;;1.60;1.50;;;38.90;37.40;;;;;;5052943;28;20524;-67
2022/08/03 12:57:06;;;;;;;1.48;1.38;;;38.70;37.30;;;;;;5052763;28;20640;-67
2022/08/03 12:59:34;;;;;;;2.78;1.40;;;38.50;37.60;;;;;;5052742;28;20181;-67
2022/08/03 13:02:00;;;;;;;1.80;1.30;;;38.30;38.20;;;;;;5052149;28;20242;-67